Weather History for Mammoth, CA

Change the Weather History Date:

Sunday, January 12, 2014

  Actual Average Record
Temperature  
Mean Temperature 36 °F -  
Max Temperature 48 °F 35 °F 51 °F (1999)
Min Temperature 21 °F 20 °F -7 °F (2013)
Degree Days  
Heating Degree Days 30    
Moisture  
Dew Point 5 °F    
Average Humidity 31    
Maximum Humidity 58    
Minimum Humidity 15    
Precipitation  
Precipitation 0.00 in - - ()
Sea Level Pressure  
Sea Level Pressure 30.28 in    
Wind  
Wind Speed 14 mph (WNW)    
Max Wind Speed 30 mph    
Max Gust Speed 43 mph    
Visibility 10 miles    
Events      
Averages and records for this station are not official NWS values.
T = Trace of Precipitation, MM = Missing Value Source: NWS Daily Summary

Daily Weather History Graph

Daily Weather History Graph

Search for Another Location

Airport:

Trip Planner

Search our weather history database for the weather conditions in past years. The results will help you decide how hot, cold, wet, or windy it might be!

Date:

Astronomy

Jan. 12, 2014 Rise Set
Actual Time 7:09 AM PST 4:57 PM PST
Civil Twilight 6:41 AM PST 5:26 PM PST
Nautical Twilight 6:08 AM PST 5:58 PM PST
Astronomical Twilight 5:37 AM PST 6:30 PM PST
Moon 2:29 PM PST (1/12) 4:13 AM PST (1/12)
Length of Visible Light 10h 45m
Length of Day
9h 47m
Waxing Gibbous, 90% of the Moon is Illuminated
Jan 12
Waxing Gibbous
Jan 15
Full
Jan 23
Last Quarter
Jan 30
New
Feb 6
First Quarter

Hourly Weather History & Observations

Time (PST) Temp. Windchill Dew Point Humidity Pressure Visibility Wind Dir Wind Speed Gust Speed Precip Events Conditions
12:15 AM 39.2 °F 28.0 °F 6.8 °F 26% 30.13 in 10.0 mi West 26.5 mph 42.6 mph N/A   Clear
12:35 AM 39.2 °F 27.4 °F 5.0 °F 24% 30.12 in 10.0 mi West 29.9 mph 41.4 mph N/A   Clear
12:55 AM 39.2 °F 27.8 °F 3.2 °F 22% 30.12 in 10.0 mi West 27.6 mph 41.4 mph N/A   Clear
1:15 AM 39.2 °F 27.8 °F 3.2 °F 22% 30.11 in 10.0 mi West 27.6 mph 35.7 mph N/A   Clear
1:35 AM 39.2 °F 29.0 °F -2.2 °F 17% 30.10 in 10.0 mi West 21.9 mph 39.1 mph N/A   Clear
1:55 AM 39.2 °F 29.8 °F -0.4 °F 19% 30.10 in 10.0 mi West 18.4 mph 31.1 mph N/A   Clear
2:15 AM 37.4 °F 28.5 °F 5.0 °F 26% 30.11 in 10.0 mi NNW 15.0 mph 24.2 mph N/A   Clear
2:35 AM 35.6 °F 26.6 °F 5.0 °F 28% 30.12 in 10.0 mi NW 13.8 mph - N/A   Clear
2:55 AM 35.6 °F 25.5 °F 5.0 °F 28% 30.12 in 10.0 mi NW 17.3 mph 27.6 mph N/A   Clear
3:15 AM 35.6 °F 24.8 °F 5.0 °F 28% 30.12 in 10.0 mi WNW 19.6 mph 25.3 mph N/A   Clear
3:35 AM 35.6 °F 25.5 °F 5.0 °F 28% 30.11 in 10.0 mi WNW 17.3 mph 24.2 mph N/A   Clear
3:55 AM 35.6 °F 25.9 °F 6.8 °F 30% 30.12 in 10.0 mi NW 16.1 mph - N/A   Clear
4:15 AM 35.6 °F 25.5 °F 8.6 °F 33% 30.13 in 10.0 mi NW 17.3 mph 25.3 mph N/A   Clear
4:35 AM 33.8 °F 24.3 °F 10.4 °F 38% 30.13 in 10.0 mi NW 13.8 mph - N/A   Clear
4:55 AM 33.8 °F 24.3 °F 8.6 °F 35% 30.14 in 10.0 mi NW 13.8 mph - N/A   Clear
5:15 AM 33.8 °F 25.3 °F 8.6 °F 35% 30.14 in 10.0 mi NW 11.5 mph 17.3 mph N/A   Clear
5:35 AM 33.8 °F 30.8 °F 6.8 °F 32% 30.14 in 10.0 mi ENE 3.5 mph - N/A   Clear
5:55 AM 30.2 °F 21.9 °F 12.2 °F 47% 30.15 in 10.0 mi ESE 9.2 mph - N/A   Clear
6:15 AM 30.2 °F 22.6 °F 10.4 °F 44% 30.16 in 10.0 mi ESE 8.1 mph - N/A   Clear
6:35 AM 28.4 °F 23.3 °F 10.4 °F 47% 30.18 in 10.0 mi NW 4.6 mph - N/A   Clear
6:55 AM 24.8 °F 19.1 °F 8.6 °F 50% 30.20 in 10.0 mi West 4.6 mph - N/A   Clear
7:15 AM 23.0 °F 18.4 °F 8.6 °F 54% 30.22 in 10.0 mi WNW 3.5 mph - N/A   Clear
7:35 AM 24.8 °F 14.6 °F 8.6 °F 50% 30.23 in 10.0 mi West 10.4 mph - N/A   Clear
7:55 AM 30.2 °F 19.8 °F 6.8 °F 37% 30.25 in 10.0 mi West 13.8 mph - N/A   Clear
8:15 AM 30.2 °F 23.4 °F 6.8 °F 37% 30.26 in 10.0 mi West 6.9 mph - N/A   Clear
8:35 AM 32.0 °F 28.7 °F 8.6 °F 38% 30.28 in 10.0 mi West 3.5 mph - N/A   Clear
8:55 AM 33.8 °F 27.0 °F 8.6 °F 35% 30.29 in 10.0 mi West 8.1 mph - N/A   Clear
9:15 AM 35.6 °F 28.6 °F 6.8 °F 30% 30.30 in 10.0 mi WNW 9.2 mph - N/A   Clear
9:35 AM 37.4 °F 32.8 °F 5.0 °F 26% 30.31 in 10.0 mi WNW 5.8 mph - N/A   Clear
9:55 AM 39.2 °F 35.0 °F -2.2 °F 17% 30.30 in 10.0 mi West 5.8 mph - N/A   Clear
10:15 AM 41.0 °F 37.1 °F -0.4 °F 18% 30.31 in 10.0 mi NNW 5.8 mph - N/A   Clear
10:35 AM 41.0 °F 35.8 °F -2.2 °F 16% 30.29 in 10.0 mi West 8.1 mph - N/A   Clear
10:55 AM 42.8 °F 38.0 °F -0.4 °F 16% 30.30 in 10.0 mi NNW 8.1 mph - N/A   Clear
11:15 AM 42.8 °F 38.0 °F 1.4 °F 18% 30.29 in 10.0 mi NW 8.1 mph - N/A   Clear
11:35 AM 44.6 °F 39.2 °F 3.2 °F 18% 30.28 in 10.0 mi North 10.4 mph - N/A   Clear
11:55 AM 44.6 °F 40.2 °F 1.4 °F 17% 30.26 in 10.0 mi North 8.1 mph - N/A   Clear
12:15 PM 46.4 °F 40.7 °F 1.4 °F 16% 30.27 in 10.0 mi North 12.7 mph 16.1 mph N/A   Clear
12:35 PM 46.4 °F - 1.4 °F 16% 30.27 in 10.0 mi Calm Calm - N/A   Clear
12:55 PM 46.4 °F 44.3 °F 1.4 °F 16% 30.26 in 10.0 mi West 4.6 mph - N/A   Clear
1:15 PM 46.4 °F 43.5 °F 1.4 °F 16% 30.27 in 10.0 mi NW 5.8 mph - N/A   Clear
1:35 PM 46.4 °F - 1.4 °F 16% 30.27 in 10.0 mi Calm Calm - N/A   Clear
1:55 PM 48.2 °F - 1.4 °F 15% 30.28 in 10.0 mi NNW 11.5 mph - N/A   Clear
2:15 PM 46.4 °F 41.5 °F 1.4 °F 16% 30.29 in 10.0 mi NW 10.4 mph 16.1 mph N/A   Clear
2:35 PM 46.4 °F 41.5 °F 1.4 °F 16% 30.29 in 10.0 mi NNW 10.4 mph 16.1 mph N/A   Clear
2:55 PM 46.4 °F 41.9 °F 1.4 °F 16% 30.30 in 10.0 mi NW 9.2 mph - N/A   Clear
3:15 PM 44.6 °F 40.2 °F 1.4 °F 17% 30.30 in 10.0 mi NNW 8.1 mph - N/A   Clear
3:35 PM 44.6 °F 40.7 °F 3.2 °F 18% 30.30 in 10.0 mi North 6.9 mph - N/A   Clear
3:55 PM 44.6 °F 39.7 °F 3.2 °F 18% 30.31 in 10.0 mi NNW 9.2 mph - N/A   Clear
4:15 PM 41.0 °F 35.2 °F 3.2 °F 21% 30.32 in 10.0 mi NNW 9.2 mph - N/A   Clear
4:35 PM 39.2 °F 32.5 °F 3.2 °F 22% 30.34 in 10.0 mi NNW 10.4 mph - N/A   Clear
4:55 PM 37.4 °F 31.4 °F 5.0 °F 26% 30.35 in 10.0 mi North 8.1 mph - N/A   Clear
5:15 PM 32.0 °F 27.5 °F 3.2 °F 30% 30.35 in 10.0 mi WNW 4.6 mph - N/A   Clear
5:35 PM 33.8 °F 29.6 °F 3.2 °F 28% 30.36 in 10.0 mi WSW 4.6 mph - N/A   Clear
5:55 PM 35.6 °F - 6.8 °F 30% 30.36 in 10.0 mi Calm Calm - N/A   Clear
6:15 PM 30.2 °F 26.7 °F 3.2 °F 32% 30.36 in 10.0 mi NNW 3.5 mph - N/A   Clear
6:35 PM 26.6 °F 17.5 °F 5.0 °F 40% 30.38 in 10.0 mi West 9.2 mph - N/A   Clear
6:55 PM 30.2 °F 20.2 °F 6.8 °F 37% 30.40 in 10.0 mi West 12.7 mph - N/A   Clear
7:15 PM 32.0 °F 22.5 °F 6.8 °F 35% 30.41 in 10.0 mi West 12.7 mph - N/A   Clear
7:35 PM 32.0 °F 22.5 °F 6.8 °F 35% 30.41 in 10.0 mi WNW 12.7 mph - N/A   Clear
7:55 PM 30.2 °F 21.3 °F 6.8 °F 37% 30.43 in 10.0 mi West 10.4 mph - N/A   Clear
8:15 PM 28.4 °F 19.7 °F 8.6 °F 43% 30.42 in 10.0 mi West 9.2 mph - N/A   Clear
8:35 PM 26.6 °F - 6.8 °F 43% 30.42 in 10.0 mi Calm Calm - N/A   Clear
8:55 PM 28.4 °F 22.2 °F 8.6 °F 43% 30.45 in 10.0 mi WNW 5.8 mph - N/A   Clear
9:15 PM 26.6 °F 15.7 °F 8.6 °F 47% 30.47 in 10.0 mi West 12.7 mph - N/A   Clear
9:35 PM 26.6 °F 17.5 °F 8.6 °F 47% 30.49 in 10.0 mi West 9.2 mph - N/A   Clear
9:55 PM 24.8 °F 15.3 °F 8.6 °F 50% 30.49 in 10.0 mi WNW 9.2 mph - N/A   Clear
10:15 PM 26.6 °F 17.5 °F 8.6 °F 47% 30.48 in 10.0 mi WNW 9.2 mph - N/A   Clear
10:35 PM 26.6 °F 18.2 °F 8.6 °F 47% 30.47 in 10.0 mi WNW 8.1 mph - N/A   Clear
10:55 PM 24.8 °F 15.3 °F 8.6 °F 50% 30.47 in 10.0 mi West 9.2 mph - N/A   Clear
11:15 PM 23.0 °F 15.8 °F 8.6 °F 54% 30.47 in 10.0 mi WNW 5.8 mph - N/A   Clear
11:35 PM 23.0 °F 18.4 °F 8.6 °F 54% 30.46 in 10.0 mi North 3.5 mph - N/A   Clear
11:55 PM 21.2 °F 11.7 °F 8.6 °F 58% 30.47 in 10.0 mi West 8.1 mph - N/A   Clear